createdAt,value
2023-03-31T00:02:13.403Z,32.08
2023-03-31T00:04:52.793Z,22.23
2023-03-31T00:07:24.225Z,22.08
2023-03-31T00:10:00.933Z,23.67
2023-03-31T00:12:37.604Z,24.42
2023-03-31T00:15:04.693Z,24.50
2023-03-31T00:17:33.384Z,20.77
2023-03-31T00:20:04.081Z,22.95
2023-03-31T00:22:31.088Z,21.27
2023-03-31T00:24:57.856Z,21.30
2023-03-31T00:27:24.684Z,25.42
2023-03-31T00:29:53.105Z,20.85
2023-03-31T00:32:19.915Z,19.63
2023-03-31T00:34:46.979Z,20.30
2023-03-31T00:37:14.862Z,19.48
2023-03-31T00:39:43.293Z,27.55
2023-03-31T00:42:13.301Z,24.52
2023-03-31T00:45:15.426Z,20.17
2023-03-31T00:47:55.344Z,22.15
2023-03-31T00:50:26.985Z,26.98
2023-03-31T00:52:58.065Z,24.10
2023-03-31T00:55:32.480Z,13.48
2023-03-31T00:58:02.082Z,18.00
2023-03-31T01:00:30.196Z,16.90
2023-03-31T01:03:03.672Z,13.07
2023-03-31T01:05:50.212Z,14.43
2023-03-31T01:08:19.384Z,17.73
2023-03-31T01:10:50.688Z,17.15
2023-03-31T01:13:19.856Z,14.13
2023-03-31T01:15:46.932Z,18.00
2023-03-31T01:18:16.479Z,16.35
2023-03-31T01:21:20.564Z,16.83
2023-03-31T01:26:24.889Z,16.35
2023-03-31T01:28:52.407Z,16.67
2023-03-31T01:31:38.136Z,19.27
2023-03-31T01:34:20.324Z,23.00
2023-03-31T01:36:56.343Z,23.45
2023-03-31T01:39:47.744Z,20.77
2023-03-31T01:42:34.638Z,18.17
2023-03-31T01:45:16.742Z,19.05
2023-03-31T01:47:52.125Z,20.10
2023-03-31T01:50:29.938Z,14.75
2023-03-31T01:53:20.116Z,20.17
2023-03-31T01:56:04.388Z,18.42
2023-03-31T01:58:38.793Z,12.93
2023-03-31T02:01:21.506Z,15.55
2023-03-31T02:03:57.887Z,21.92
2023-03-31T02:06:30.672Z,18.23
2023-03-31T02:09:02.716Z,19.95
2023-03-31T02:11:32.472Z,16.30
2023-03-31T02:14:01.970Z,16.60
2023-03-31T02:16:32.231Z,16.88
2023-03-31T02:19:04.074Z,16.95
2023-03-31T02:21:34.228Z,17.98
2023-03-31T02:24:05.546Z,18.17
2023-03-31T02:26:38.174Z,16.05
2023-03-31T02:29:05.262Z,17.25
2023-03-31T02:31:32.019Z,11.63
2023-03-31T02:33:58.855Z,15.05
2023-03-31T02:36:26.180Z,11.38
2023-03-31T02:39:05.714Z,14.20
2023-03-31T02:41:33.231Z,18.70
2023-03-31T02:44:00.516Z,13.38
2023-03-31T02:46:28.467Z,21.48
2023-03-31T02:49:02.546Z,20.67
2023-03-31T02:52:04.714Z,16.40
2023-03-31T02:55:16.845Z,18.73
2023-03-31T02:58:20.806Z,18.42
2023-03-31T03:03:51.193Z,14.75
2023-03-31T03:06:27.896Z,11.85
2023-03-31T03:09:17.136Z,11.23
2023-03-31T03:12:27.105Z,13.75
2023-03-31T03:15:00.622Z,13.45
2023-03-31T03:17:32.998Z,10.10
2023-03-31T03:20:01.914Z,9.18
2023-03-31T03:22:28.838Z,13.40
2023-03-31T03:24:55.936Z,11.50
2023-03-31T03:27:22.944Z,10.95
2023-03-31T03:29:49.853Z,11.38
2023-03-31T03:32:16.830Z,9.85
2023-03-31T03:34:43.809Z,10.27
2023-03-31T03:37:10.658Z,9.38
2023-03-31T03:39:37.552Z,8.70
2023-03-31T03:42:04.588Z,14.65
2023-03-31T03:44:31.451Z,15.05
2023-03-31T03:46:58.293Z,9.43
2023-03-31T03:49:25.188Z,11.05
2023-03-31T03:51:52.846Z,10.05
2023-03-31T03:54:19.657Z,10.13
2023-03-31T03:56:46.512Z,10.07
2023-03-31T03:59:13.887Z,9.90
2023-03-31T04:01:40.905Z,10.60
2023-03-31T04:04:07.832Z,14.00
2023-03-31T04:06:35.221Z,9.40
2023-03-31T04:09:02.466Z,13.38
2023-03-31T04:11:29.692Z,10.13
2023-03-31T04:13:56.509Z,8.95
2023-03-31T04:16:25.362Z,14.35
2023-03-31T04:18:56.718Z,11.23
2023-03-31T04:21:24.028Z,8.75
2023-03-31T04:24:06.928Z,15.38
2023-03-31T04:26:44.514Z,12.45
2023-03-31T04:29:14.021Z,8.60
2023-03-31T04:31:44.370Z,13.90
2023-03-31T04:34:13.796Z,15.07
2023-03-31T04:36:48.977Z,13.27
2023-03-31T04:39:17.492Z,13.18
2023-03-31T04:41:45.350Z,11.35
2023-03-31T04:44:12.255Z,12.88
2023-03-31T04:46:39.086Z,12.15
2023-03-31T04:49:06.357Z,12.38
2023-03-31T04:51:33.176Z,13.68
2023-03-31T04:54:00.189Z,13.25
2023-03-31T04:56:27.387Z,14.68
2023-03-31T04:58:54.304Z,12.70
2023-03-31T05:01:22.193Z,15.38
2023-03-31T05:03:49.114Z,16.55
2023-03-31T05:06:16.829Z,11.57
2023-03-31T05:08:44.436Z,12.45
2023-03-31T05:11:11.265Z,12.90
2023-03-31T05:13:38.275Z,10.38
2023-03-31T05:16:10.824Z,13.95
2023-03-31T05:18:37.989Z,8.30
2023-03-31T05:21:19.902Z,16.83
2023-03-31T05:23:48.805Z,12.93
2023-03-31T05:26:15.985Z,14.38
2023-03-31T05:28:43.085Z,21.92
2023-03-31T05:31:11.350Z,17.00
2023-03-31T05:33:42.187Z,20.27
2023-03-31T05:36:15.585Z,11.48
2023-03-31T05:41:11.040Z,16.55
2023-03-31T05:43:39.559Z,17.73
2023-03-31T05:46:07.101Z,14.52
2023-03-31T05:48:34.322Z,13.82
2023-03-31T05:51:02.052Z,19.48
2023-03-31T05:53:29.054Z,14.07
2023-03-31T05:56:00.243Z,17.08
2023-03-31T05:58:27.696Z,10.50
2023-03-31T06:01:12.074Z,12.57
2023-03-31T06:03:41.508Z,14.30
2023-03-31T06:06:10.063Z,18.73
2023-03-31T06:08:37.978Z,17.40
2023-03-31T06:11:10.572Z,13.23
2023-03-31T06:13:38.355Z,17.48
2023-03-31T06:16:06.193Z,11.93
2023-03-31T06:18:35.540Z,17.25
2023-03-31T06:21:03.805Z,14.48
2023-03-31T06:23:31.345Z,14.48
2023-03-31T06:26:08.481Z,12.45
2023-03-31T06:28:36.374Z,15.45
2023-03-31T06:31:06.351Z,12.73
2023-03-31T06:33:34.143Z,16.45
2023-03-31T06:36:04.060Z,14.68
2023-03-31T06:38:31.801Z,14.07
2023-03-31T06:40:58.676Z,13.23
2023-03-31T06:43:25.862Z,13.85
2023-03-31T06:45:56.915Z,15.05
2023-03-31T06:48:25.295Z,23.73
2023-03-31T06:50:54.104Z,14.50
2023-03-31T06:53:22.596Z,11.90
2023-03-31T06:55:49.503Z,13.50
2023-03-31T06:58:16.512Z,13.30
2023-03-31T07:00:45.248Z,16.52
2023-03-31T07:03:12.901Z,13.75
2023-03-31T07:05:39.893Z,17.65
2023-03-31T07:08:06.797Z,16.88
2023-03-31T07:10:33.613Z,15.50
2023-03-31T07:13:00.439Z,22.80
2023-03-31T07:15:28.788Z,15.15
2023-03-31T07:18:02.591Z,20.38
2023-03-31T07:20:30.586Z,18.13
2023-03-31T07:22:57.661Z,16.25
2023-03-31T07:25:24.578Z,17.20
2023-03-31T07:27:51.467Z,11.43
2023-03-31T07:30:20.076Z,22.95
2023-03-31T07:32:48.038Z,12.75
2023-03-31T07:35:15.327Z,13.43
2023-03-31T07:37:44.315Z,20.13
2023-03-31T07:40:15.374Z,16.70
2023-03-31T07:42:42.847Z,14.93
2023-03-31T07:45:10.594Z,13.77
2023-03-31T07:47:38.527Z,19.23
2023-03-31T07:50:06.271Z,13.50
2023-03-31T07:52:33.084Z,20.25
2023-03-31T07:54:59.910Z,15.20
2023-03-31T07:57:26.859Z,17.88
2023-03-31T07:59:53.693Z,18.85
2023-03-31T08:02:20.644Z,15.50
2023-03-31T08:04:50.899Z,16.90
2023-03-31T08:07:17.932Z,14.43
2023-03-31T08:09:46.570Z,12.50
2023-03-31T08:12:14.990Z,11.90
2023-03-31T08:14:42.671Z,15.27
2023-03-31T08:17:10.893Z,15.00
2023-03-31T08:19:37.987Z,13.07
2023-03-31T08:22:04.926Z,14.52
2023-03-31T08:24:31.777Z,16.15
2023-03-31T08:26:58.626Z,15.38
2023-03-31T08:29:25.808Z,16.30
2023-03-31T08:31:54.517Z,23.15
2023-03-31T08:34:21.495Z,21.98
2023-03-31T08:36:48.849Z,18.95
2023-03-31T08:39:15.725Z,17.90
2023-03-31T08:42:02.565Z,19.60
2023-03-31T08:44:42.172Z,22.50
2023-03-31T08:47:16.015Z,21.15
2023-03-31T08:49:52.446Z,13.10
2023-03-31T08:52:34.359Z,17.23
2023-03-31T08:55:06.685Z,20.75
2023-03-31T08:57:56.849Z,17.98
2023-03-31T09:00:23.774Z,16.00
2023-03-31T09:02:52.814Z,13.45
2023-03-31T09:06:00.513Z,8.20
2023-03-31T09:08:42.248Z,12.07
2023-03-31T09:11:33.453Z,11.98
2023-03-31T09:14:09.211Z,10.13
2023-03-31T09:16:50.601Z,11.60
2023-03-31T09:19:26.261Z,11.07
2023-03-31T09:21:56.516Z,10.55
2023-03-31T09:24:33.426Z,13.18
2023-03-31T09:27:08.536Z,8.95
2023-03-31T09:29:35.380Z,9.90
2023-03-31T09:32:13.955Z,9.20
2023-03-31T09:34:42.324Z,14.68
2023-03-31T09:37:11.799Z,14.70
2023-03-31T09:39:40.071Z,9.02
2023-03-31T09:42:10.084Z,7.78
2023-03-31T09:44:43.103Z,9.50
2023-03-31T09:47:38.965Z,8.05
2023-03-31T09:50:07.769Z,8.15
2023-03-31T09:52:48.706Z,8.65
2023-03-31T09:55:46.449Z,9.48
2023-03-31T09:58:16.186Z,9.48
2023-03-31T10:00:58.021Z,14.63
2023-03-31T10:03:25.362Z,8.82
2023-03-31T10:05:55.036Z,10.55
2023-03-31T10:08:32.688Z,13.82
2023-03-31T10:11:02.604Z,7.63
2023-03-31T10:13:41.233Z,7.90
2023-03-31T10:16:13.712Z,12.40
2023-03-31T10:18:42.742Z,7.32
2023-03-31T10:21:35.732Z,8.45
2023-03-31T10:24:10.215Z,8.25
2023-03-31T10:26:38.072Z,6.90
2023-03-31T10:29:12.631Z,4.60
2023-03-31T10:31:40.066Z,4.80
2023-03-31T10:34:12.723Z,6.75
2023-03-31T10:36:51.827Z,6.15
2023-03-31T10:39:19.774Z,8.88
2023-03-31T10:41:53.082Z,4.75
2023-03-31T10:45:09.864Z,6.22
2023-03-31T10:47:39.331Z,7.88
2023-03-31T10:50:15.712Z,5.25
2023-03-31T10:52:47.875Z,6.75
2023-03-31T10:55:28.458Z,6.60
2023-03-31T10:58:23.671Z,6.90
2023-03-31T11:00:58.277Z,9.55
2023-03-31T11:03:37.668Z,6.07
2023-03-31T11:06:17.017Z,7.93
2023-03-31T11:08:56.127Z,4.15
2023-03-31T11:11:49.845Z,6.75
2023-03-31T11:14:54.851Z,6.35
2023-03-31T11:17:45.922Z,6.10
2023-03-31T11:20:30.911Z,3.40
2023-03-31T11:23:10.380Z,5.95
2023-03-31T11:25:45.735Z,6.65
2023-03-31T11:28:27.172Z,7.05
2023-03-31T11:31:28.159Z,6.50
2023-03-31T11:34:16.264Z,4.82
2023-03-31T11:36:52.232Z,7.80
2023-03-31T11:39:39.706Z,6.22
2023-03-31T11:42:19.976Z,7.38
2023-03-31T11:44:53.035Z,4.07
2023-03-31T11:47:24.365Z,6.95
2023-03-31T11:50:00.564Z,7.72
2023-03-31T11:52:37.631Z,7.00
2023-03-31T11:55:23.089Z,7.68
2023-03-31T11:58:12.393Z,12.27
2023-03-31T12:00:51.847Z,6.05
2023-03-31T12:03:46.852Z,8.40
2023-03-31T12:06:19.284Z,7.07
2023-03-31T12:09:08.195Z,8.93
2023-03-31T12:11:52.451Z,9.00
2023-03-31T12:14:34.698Z,7.65
2023-03-31T12:17:12.287Z,8.13
2023-03-31T12:19:44.959Z,8.13
2023-03-31T12:22:26.319Z,10.75
2023-03-31T12:24:54.104Z,8.60
2023-03-31T12:27:37.838Z,11.95
2023-03-31T12:30:16.229Z,9.75
2023-03-31T12:32:54.986Z,14.55
2023-03-31T12:35:31.198Z,13.48
2023-03-31T12:38:36.202Z,12.63
2023-03-31T12:41:19.888Z,13.27
2023-03-31T12:43:53.695Z,14.13
2023-03-31T12:46:29.476Z,11.77
2023-03-31T12:49:23.898Z,10.57
2023-03-31T12:51:53.698Z,12.50
2023-03-31T12:54:28.712Z,12.13
2023-03-31T12:57:01.869Z,14.15
2023-03-31T12:59:36.261Z,9.57
2023-03-31T13:02:15.479Z,13.88
2023-03-31T13:04:43.665Z,17.80
2023-03-31T13:07:29.201Z,21.17
2023-03-31T13:10:21.673Z,21.23
2023-03-31T13:13:05.176Z,21.73
2023-03-31T13:15:33.341Z,13.93
2023-03-31T13:18:06.577Z,18.08
2023-03-31T13:20:38.551Z,20.15
2023-03-31T13:23:07.364Z,15.70
2023-03-31T13:25:57.830Z,12.73
2023-03-31T13:28:35.088Z,17.58
2023-03-31T13:31:04.016Z,14.63
2023-03-31T13:34:01.021Z,13.75
2023-03-31T13:36:34.053Z,14.90
2023-03-31T13:42:27.929Z,13.43
2023-03-31T13:44:55.573Z,13.65
2023-03-31T13:47:41.710Z,22.60
2023-03-31T13:50:23.761Z,19.60
2023-03-31T13:53:01.153Z,19.58
2023-03-31T13:55:46.702Z,16.88
2023-03-31T13:58:51.300Z,11.55
2023-03-31T14:02:00.510Z,15.10
2023-03-31T14:04:59.898Z,13.77
2023-03-31T14:07:38.280Z,15.40
2023-03-31T14:10:07.278Z,15.82
2023-03-31T14:12:38.582Z,13.13
2023-03-31T14:15:07.097Z,16.05
2023-03-31T14:17:37.726Z,18.52
2023-03-31T14:20:13.506Z,13.90
2023-03-31T14:23:01.031Z,17.63
2023-03-31T14:25:49.250Z,19.40
2023-03-31T14:28:28.512Z,16.45
2023-03-31T14:31:04.880Z,14.00
2023-03-31T14:33:53.023Z,17.88
2023-03-31T14:36:38.259Z,21.13
2023-03-31T14:39:09.431Z,16.35
2023-03-31T14:41:38.102Z,17.98
2023-03-31T14:44:07.509Z,22.25
2023-03-31T14:46:39.135Z,16.48
2023-03-31T14:49:24.986Z,20.95
2023-03-31T14:51:53.919Z,24.83
2023-03-31T14:54:22.029Z,20.02
2023-03-31T14:56:51.949Z,14.30
2023-03-31T14:59:26.042Z,23.20
2023-03-31T15:01:55.545Z,20.85
2023-03-31T15:04:35.180Z,17.42
2023-03-31T15:07:08.784Z,14.82
2023-03-31T15:09:36.737Z,18.52
2023-03-31T15:12:15.248Z,14.30
2023-03-31T15:14:51.400Z,21.77
2023-03-31T15:17:23.181Z,21.35
2023-03-31T15:19:58.825Z,11.65
2023-03-31T15:22:31.658Z,14.45
2023-03-31T15:24:58.677Z,15.95
2023-03-31T15:27:49.958Z,21.85
2023-03-31T15:30:23.547Z,17.40
2023-03-31T17:34:22.695Z,5.43
2023-03-31T17:36:51.385Z,8.07
2023-03-31T17:39:18.395Z,8.95
2023-03-31T17:41:45.341Z,7.68
2023-03-31T17:44:12.315Z,11.93
2023-03-31T17:46:39.293Z,12.98
2023-03-31T17:49:06.317Z,9.40
2023-03-31T17:51:34.618Z,8.40
2023-03-31T17:54:03.215Z,11.35
2023-03-31T17:56:30.264Z,10.85
2023-03-31T17:58:57.342Z,11.82
2023-03-31T18:01:24.339Z,6.78
2023-03-31T18:03:51.169Z,7.38
2023-03-31T18:06:18.187Z,6.97
2023-03-31T18:08:45.078Z,7.25
2023-03-31T18:11:13.296Z,4.07
2023-03-31T18:13:40.569Z,7.25
2023-03-31T18:16:13.029Z,4.03
2023-03-31T18:18:40.448Z,8.35
2023-03-31T18:21:09.775Z,8.85
2023-03-31T18:23:37.809Z,7.28
2023-03-31T18:26:10.262Z,7.65
2023-03-31T18:28:37.779Z,7.78
2023-03-31T18:31:06.093Z,9.43
2023-03-31T18:33:33.452Z,9.77
2023-03-31T18:36:00.830Z,7.55
2023-03-31T18:38:28.228Z,14.43
2023-03-31T18:40:55.167Z,10.00
2023-03-31T18:43:23.843Z,10.75
2023-03-31T18:45:53.586Z,10.70
2023-03-31T18:48:24.157Z,9.93
2023-03-31T18:50:52.556Z,11.15
2023-03-31T18:53:21.003Z,5.80
2023-03-31T18:55:53.196Z,9.95
2023-03-31T18:58:20.200Z,3.90
2023-03-31T19:00:47.149Z,5.57
2023-03-31T19:03:14.560Z,7.18
2023-03-31T19:05:41.796Z,13.07
2023-03-31T19:08:08.823Z,5.35
2023-03-31T19:10:36.509Z,5.75
2023-03-31T19:13:03.971Z,6.07
2023-03-31T19:15:31.022Z,10.30
2023-03-31T19:17:58.335Z,4.88
2023-03-31T19:20:25.577Z,9.48
2023-03-31T19:22:52.569Z,41.90
2023-03-31T19:25:20.770Z,24.60
2023-03-31T19:27:47.710Z,12.07
2023-03-31T19:30:18.270Z,34.80
2023-03-31T19:32:51.506Z,10.00
2023-03-31T19:35:19.616Z,14.75
2023-03-31T19:37:47.421Z,12.27
2023-03-31T19:40:14.816Z,7.80
2023-03-31T19:42:44.569Z,4.03
2023-03-31T19:45:11.660Z,5.28
2023-03-31T19:47:38.727Z,4.82
2023-03-31T19:50:07.319Z,4.45
2023-03-31T19:52:34.521Z,3.03
2023-03-31T19:55:01.420Z,4.65
2023-03-31T19:57:29.213Z,4.40
2023-03-31T19:59:56.492Z,6.55
2023-03-31T20:02:23.701Z,4.07
2023-03-31T20:04:51.628Z,4.15
2023-03-31T20:07:18.766Z,4.70
2023-03-31T20:09:46.092Z,4.40
2023-03-31T20:12:13.077Z,6.70
2023-03-31T20:14:40.279Z,12.50
2023-03-31T20:17:07.582Z,8.57
2023-03-31T20:19:35.090Z,6.63
2023-03-31T20:22:02.245Z,5.35
2023-03-31T20:24:29.677Z,4.20
2023-03-31T20:26:57.456Z,4.20
2023-03-31T20:29:24.911Z,4.75
2023-03-31T20:31:52.062Z,8.20
2023-03-31T20:34:27.550Z,9.80
2023-03-31T20:36:54.565Z,4.47
2023-03-31T20:39:24.831Z,7.22
2023-03-31T20:41:51.916Z,4.15
2023-03-31T20:44:19.426Z,4.88
2023-03-31T20:46:46.596Z,5.32
2023-03-31T20:49:13.593Z,3.50
2023-03-31T20:51:41.704Z,5.18
2023-03-31T20:54:08.726Z,5.30
2023-03-31T20:56:40.576Z,7.55
2023-03-31T20:59:11.728Z,6.72
2023-03-31T21:01:39.287Z,7.35
2023-03-31T21:04:07.559Z,7.15
2023-03-31T21:06:40.657Z,4.65
2023-03-31T21:09:08.813Z,5.55
2023-03-31T21:11:35.807Z,5.15
2023-03-31T21:14:03.177Z,7.65
2023-03-31T21:16:30.140Z,7.50
2023-03-31T21:18:59.244Z,4.00
2023-03-31T21:21:27.208Z,5.45
2023-03-31T21:23:55.013Z,5.05
2023-03-31T21:26:23.044Z,4.75
2023-03-31T21:28:54.476Z,6.78
2023-03-31T21:31:24.235Z,4.43
2023-03-31T21:33:52.956Z,6.00
2023-03-31T21:36:24.337Z,6.28
2023-03-31T21:38:53.883Z,6.03
2023-03-31T21:41:27.142Z,5.45
2023-03-31T21:43:55.555Z,6.10
2023-03-31T21:46:27.837Z,5.95
2023-03-31T21:48:56.704Z,5.40
2023-03-31T21:51:24.643Z,8.00
2023-03-31T21:53:55.141Z,5.80
2023-03-31T21:56:24.009Z,6.13
2023-03-31T21:58:51.075Z,6.43
2023-03-31T22:01:18.893Z,7.68
2023-03-31T22:03:46.833Z,6.68
2023-03-31T22:06:14.147Z,9.57
2023-03-31T22:08:41.504Z,10.07
2023-03-31T22:11:09.978Z,9.32
2023-03-31T22:13:37.636Z,8.30
2023-03-31T22:16:06.303Z,7.75
2023-03-31T22:18:33.617Z,6.97
2023-03-31T22:21:02.459Z,6.45
2023-03-31T22:23:29.642Z,5.60
2023-03-31T22:25:56.469Z,6.32
2023-03-31T22:28:23.310Z,7.85
2023-03-31T22:30:50.093Z,8.82
2023-03-31T22:33:16.924Z,9.38
2023-03-31T22:35:44.262Z,8.32
2023-03-31T22:38:14.018Z,8.02
2023-03-31T22:40:41.334Z,10.50
2023-03-31T22:43:08.861Z,8.23
2023-03-31T22:45:37.884Z,5.93
2023-03-31T22:48:06.701Z,8.40
2023-03-31T22:50:33.538Z,7.40
2023-03-31T22:53:00.384Z,9.85
2023-03-31T22:55:27.344Z,11.13
2023-03-31T22:57:54.192Z,8.63
2023-03-31T23:00:21.238Z,8.77
2023-03-31T23:02:48.098Z,10.85
2023-03-31T23:05:14.998Z,8.40
2023-03-31T23:07:41.834Z,8.02
2023-03-31T23:10:09.067Z,9.15
2023-03-31T23:12:35.918Z,10.50
2023-03-31T23:15:03.805Z,7.05
2023-03-31T23:17:31.176Z,11.27
2023-03-31T23:20:00.792Z,9.43
2023-03-31T23:22:27.985Z,8.32
2023-03-31T23:24:54.778Z,8.80
2023-03-31T23:27:21.991Z,8.77
2023-03-31T23:29:48.782Z,10.70
2023-03-31T23:32:15.754Z,10.05
2023-03-31T23:34:43.441Z,11.63
2023-03-31T23:37:12.357Z,7.10
2023-03-31T23:39:39.527Z,12.40
2023-03-31T23:42:07.354Z,10.35
2023-03-31T23:44:37.178Z,7.70
2023-03-31T23:47:05.333Z,9.75
2023-03-31T23:49:32.553Z,8.23
2023-03-31T23:51:59.442Z,10.75
2023-03-31T23:54:26.434Z,12.15
2023-03-31T23:56:53.478Z,9.07
2023-03-31T23:59:20.711Z,9.55
